createdAt,value
2023-05-03T00:04:06.568Z,74.57
2023-05-03T00:09:13.271Z,74.31
2023-05-03T00:14:22.214Z,74.32
2023-05-03T00:19:33.887Z,73.96
2023-05-03T00:24:38.493Z,73.71
2023-05-03T00:29:54.140Z,74.17
2023-05-03T00:34:59.217Z,74.92
2023-05-03T00:40:03.677Z,75.10
2023-05-03T00:45:15.396Z,75.33
2023-05-03T00:50:21.406Z,75.35
2023-05-03T00:55:26.941Z,75.12
2023-05-03T01:00:39.773Z,76.59
2023-05-03T01:05:55.746Z,76.52
2023-05-03T01:11:09.141Z,77.81
2023-05-03T01:16:32.184Z,78.92
2023-05-03T01:21:39.817Z,78.23
2023-05-03T01:26:49.256Z,79.01
2023-05-03T01:32:04.300Z,79.70
2023-05-03T01:37:43.663Z,80.38
2023-05-03T01:42:49.592Z,80.86
2023-05-03T01:48:00.349Z,80.88
2023-05-03T01:53:05.058Z,81.35
2023-05-03T01:58:17.762Z,81.38
2023-05-03T02:03:24.690Z,81.57
2023-05-03T02:08:29.996Z,80.66
2023-05-03T02:13:39.869Z,81.42
2023-05-03T02:18:44.865Z,81.38
2023-05-03T02:23:49.635Z,81.61
2023-05-03T02:28:57.401Z,82.57
2023-05-03T02:34:01.749Z,81.67
2023-05-03T02:39:06.091Z,82.86
2023-05-03T02:44:14.261Z,81.89
2023-05-03T02:49:19.650Z,83.14
2023-05-03T02:54:26.506Z,82.47
2023-05-03T02:59:34.402Z,82.40
2023-05-03T03:04:42.054Z,82.97
2023-05-03T03:09:46.188Z,82.26
2023-05-03T03:14:56.162Z,82.06
2023-05-03T03:20:03.334Z,83.06
2023-05-03T03:25:11.454Z,83.13
2023-05-03T03:30:21.957Z,83.24
2023-05-03T03:35:28.887Z,83.28
2023-05-03T03:40:33.868Z,82.87
2023-05-03T03:45:40.700Z,83.81
2023-05-03T03:50:47.085Z,83.29
2023-05-03T03:56:07.087Z,83.16
2023-05-03T04:01:21.089Z,83.11
2023-05-03T04:06:30.125Z,82.09
2023-05-03T04:11:34.525Z,81.74
2023-05-03T04:16:44.835Z,81.45
2023-05-03T04:21:52.730Z,80.96
2023-05-03T04:27:04.894Z,82.03
2023-05-03T04:32:11.760Z,82.04
2023-05-03T04:37:19.486Z,82.08
2023-05-03T04:42:26.239Z,81.76
2023-05-03T04:47:34.638Z,80.74
2023-05-03T04:52:44.669Z,80.78
2023-05-03T04:57:50.445Z,78.48
2023-05-03T05:03:03.127Z,77.65
2023-05-03T05:08:08.377Z,77.73
2023-05-03T05:13:23.422Z,75.09
2023-05-03T05:18:28.621Z,69.85
2023-05-03T05:23:36.375Z,64.91
2023-05-03T05:28:41.948Z,62.23
2023-05-03T05:33:49.764Z,57.74
2023-05-03T05:38:53.657Z,55.77
2023-05-03T05:44:02.196Z,51.84
2023-05-03T05:49:09.697Z,47.11
2023-05-03T05:54:14.299Z,48.25
2023-05-03T05:59:21.783Z,46.39
2023-05-03T06:04:29.349Z,43.80
2023-05-03T06:09:35.366Z,42.05
2023-05-03T06:14:51.704Z,42.04
2023-05-03T06:20:17.532Z,37.61
2023-05-03T06:25:22.091Z,37.47
2023-05-03T06:30:28.721Z,36.99
2023-05-03T06:35:36.386Z,35.13
2023-05-03T06:40:41.585Z,35.37
2023-05-03T06:45:47.944Z,33.60
2023-05-03T06:50:54.113Z,32.13
2023-05-03T06:55:58.927Z,31.19
2023-05-03T07:01:04.739Z,30.78
2023-05-03T07:06:12.260Z,31.56
2023-05-03T07:11:17.753Z,31.29
2023-05-03T07:16:23.163Z,30.90
2023-05-03T07:21:30.752Z,30.28
2023-05-03T07:26:34.532Z,30.06
2023-05-03T07:31:45.283Z,29.35
2023-05-03T07:36:52.472Z,29.75
2023-05-03T07:41:57.048Z,30.53
2023-05-03T07:47:01.308Z,30.75
2023-05-03T07:52:09.464Z,31.41
2023-05-03T07:57:13.601Z,31.07
2023-05-03T08:02:18.894Z,30.70
2023-05-03T08:07:25.546Z,30.82
2023-05-03T08:12:30.076Z,30.44
2023-05-03T08:17:41.849Z,30.55
2023-05-03T08:22:53.003Z,32.03
2023-05-03T08:27:57.654Z,31.73
2023-05-03T08:33:03.684Z,31.37
2023-05-03T08:38:09.088Z,31.54
2023-05-03T08:43:17.869Z,33.27
2023-05-03T08:48:23.791Z,32.56
2023-05-03T08:53:31.988Z,31.71
2023-05-03T08:58:40.256Z,32.76
2023-05-03T09:03:52.643Z,32.68
2023-05-03T09:09:00.250Z,34.35
2023-05-03T09:14:15.358Z,33.87
2023-05-03T09:19:19.248Z,34.95
2023-05-03T09:24:25.437Z,34.29
2023-05-03T09:29:32.037Z,35.38
2023-05-03T09:34:37.268Z,36.37
2023-05-03T09:39:49.337Z,35.67
2023-05-03T09:45:21.005Z,36.29
2023-05-03T09:50:28.480Z,37.07
2023-05-03T09:55:38.777Z,40.03
2023-05-03T10:00:47.042Z,39.12
2023-05-03T10:05:54.249Z,38.53
2023-05-03T10:11:00.402Z,39.31
2023-05-03T10:16:09.443Z,40.85
2023-05-03T10:21:23.430Z,40.17
2023-05-03T10:26:29.569Z,39.22
2023-05-03T10:31:48.094Z,40.08
2023-05-03T10:36:54.381Z,41.43
2023-05-03T10:42:04.756Z,39.55
2023-05-03T10:47:14.476Z,40.71
2023-05-03T10:52:52.765Z,39.80
2023-05-03T10:58:02.239Z,42.32
2023-05-03T11:03:27.291Z,41.85
2023-05-03T11:08:38.086Z,41.92
2023-05-03T11:13:43.865Z,41.65
2023-05-03T11:18:50.161Z,40.84
2023-05-03T11:23:55.396Z,41.79
2023-05-03T11:29:04.191Z,41.96
2023-05-03T11:34:09.324Z,41.04
2023-05-03T11:39:17.106Z,42.25
2023-05-03T11:44:25.122Z,42.90
2023-05-03T11:49:29.194Z,42.95
2023-05-03T11:54:36.397Z,42.47
2023-05-03T11:59:57.924Z,42.15
2023-05-03T12:05:04.534Z,43.03
2023-05-03T12:10:25.891Z,44.51
2023-05-03T12:15:40.657Z,42.34
2023-05-03T12:25:56.053Z,42.80
2023-05-03T12:31:05.454Z,41.88
2023-05-03T12:36:14.488Z,41.98
2023-05-03T12:41:52.107Z,41.93
2023-05-03T12:46:53.805Z,41.48
2023-05-03T12:52:34.700Z,40.77
2023-05-03T12:57:30.237Z,40.11
2023-05-03T13:03:19.686Z,40.44
2023-05-03T13:08:09.993Z,40.25
2023-05-03T13:13:16.462Z,40.38
2023-05-03T13:18:25.779Z,41.82
2023-05-03T13:23:30.540Z,41.83
2023-05-03T13:28:34.736Z,41.62
2023-05-03T13:33:44.158Z,40.92
2023-05-03T13:38:48.443Z,41.83
2023-05-03T13:43:58.524Z,42.55
2023-05-03T13:49:05.636Z,41.73
2023-05-03T13:54:09.847Z,41.82
2023-05-03T13:59:15.519Z,42.59
2023-05-03T14:04:24.806Z,43.01
2023-05-03T14:09:30.192Z,43.13
2023-05-03T14:14:35.726Z,42.54
2023-05-03T14:19:42.241Z,42.76
2023-05-03T14:24:48.604Z,43.13
2023-05-03T14:29:56.368Z,44.03
2023-05-03T14:35:04.767Z,43.08
2023-05-03T14:40:10.951Z,42.25
2023-05-03T14:45:16.281Z,41.16
2023-05-03T14:50:25.126Z,41.48
2023-05-03T14:55:43.813Z,41.84
2023-05-03T15:00:50.348Z,42.09
2023-05-03T15:05:56.231Z,42.89
2023-05-03T15:11:04.463Z,43.49
2023-05-03T15:16:12.880Z,43.18
2023-05-03T15:21:23.937Z,43.21
2023-05-03T15:26:27.859Z,43.36
2023-05-03T15:31:33.816Z,42.75
2023-05-03T15:37:02.850Z,42.96
2023-05-03T15:42:18.342Z,44.66
2023-05-03T15:47:24.158Z,43.90
2023-05-03T15:52:37.961Z,43.56
2023-05-03T15:57:55.388Z,44.87
2023-05-03T16:02:59.404Z,45.63
2023-05-03T16:08:08.558Z,44.31
2023-05-03T16:13:15.473Z,45.23
2023-05-03T16:18:27.907Z,45.58
2023-05-03T16:23:38.567Z,45.41
2023-05-03T16:28:55.227Z,45.81
2023-05-03T16:34:00.557Z,45.73
2023-05-03T16:39:14.530Z,45.62
2023-05-03T16:44:19.661Z,46.18
2023-05-03T16:49:24.060Z,46.60
2023-05-03T16:54:35.708Z,47.52
2023-05-03T16:59:40.216Z,47.54
2023-05-03T17:04:46.227Z,47.47
2023-05-03T17:09:55.258Z,47.38
2023-05-03T17:15:16.127Z,49.26
2023-05-03T17:20:31.532Z,47.85
2023-05-03T17:25:44.766Z,48.22
2023-05-03T17:30:50.783Z,47.93
2023-05-03T17:36:04.149Z,48.19
2023-05-03T17:41:13.706Z,48.96
2023-05-03T17:46:21.991Z,48.69
2023-05-03T17:51:29.237Z,48.47
2023-05-03T17:56:34.292Z,48.88
2023-05-03T18:01:57.270Z,49.42
2023-05-03T18:07:02.728Z,49.65
2023-05-03T18:12:13.165Z,49.90
2023-05-03T18:17:17.960Z,49.72
2023-05-03T18:22:27.916Z,50.22
2023-05-03T18:27:34.447Z,50.79
2023-05-03T18:32:40.288Z,51.39
2023-05-03T18:37:44.891Z,51.36
2023-05-03T18:42:50.317Z,52.81
2023-05-03T18:48:03.905Z,53.45
2023-05-03T18:53:22.562Z,54.22
2023-05-03T18:58:35.071Z,54.68
2023-05-03T19:03:40.381Z,54.69
2023-05-03T19:08:46.922Z,55.42
2023-05-03T19:13:56.976Z,56.61
2023-05-03T19:19:02.456Z,55.81
2023-05-03T19:24:12.179Z,56.75
2023-05-03T19:29:19.635Z,57.26
2023-05-03T19:34:37.593Z,58.21
2023-05-03T19:39:45.167Z,58.45
2023-05-03T19:44:52.802Z,58.27
2023-05-03T19:49:57.658Z,59.70
2023-05-03T19:55:17.425Z,59.29
2023-05-03T20:00:39.307Z,60.94
2023-05-03T20:05:47.471Z,61.39
2023-05-03T20:10:54.578Z,61.61
2023-05-03T20:16:05.931Z,62.64
2023-05-03T20:21:14.105Z,63.18
2023-05-03T20:26:23.519Z,62.98
2023-05-03T20:31:31.661Z,63.20
2023-05-03T20:36:36.400Z,64.88
2023-05-03T20:41:43.775Z,64.77
2023-05-03T20:46:52.230Z,66.14
2023-05-03T20:51:58.589Z,65.43
2023-05-03T20:57:16.454Z,67.02
2023-05-03T21:02:23.990Z,66.42
2023-05-03T21:07:31.062Z,67.31
2023-05-03T21:12:36.312Z,67.92
2023-05-03T21:17:50.385Z,68.42
2023-05-03T21:23:04.898Z,67.72
2023-05-03T21:28:10.228Z,67.45
2023-05-03T21:33:19.153Z,68.54
2023-05-03T21:38:26.298Z,69.54
2023-05-03T21:43:34.059Z,69.60
2023-05-03T21:48:40.938Z,69.92
2023-05-03T21:53:45.841Z,69.51
2023-05-03T21:58:51.323Z,70.00
2023-05-03T22:04:02.675Z,70.17
2023-05-03T22:09:09.810Z,70.55
2023-05-03T22:14:17.888Z,70.75
2023-05-03T22:19:25.719Z,71.21
2023-05-03T22:24:33.730Z,72.35
2023-05-03T22:29:38.462Z,72.66
2023-05-03T22:34:58.115Z,73.84
2023-05-03T22:40:06.086Z,73.51
2023-05-03T22:45:12.795Z,74.20
2023-05-03T22:50:24.444Z,76.00
2023-05-03T22:55:30.836Z,74.79
2023-05-03T23:00:44.382Z,75.46
2023-05-03T23:05:54.735Z,76.50
2023-05-03T23:11:03.201Z,76.42
2023-05-03T23:16:15.164Z,76.23
2023-05-03T23:21:22.434Z,76.42
2023-05-03T23:26:33.408Z,76.14
2023-05-03T23:31:45.834Z,76.08
2023-05-03T23:36:52.034Z,76.50
2023-05-03T23:41:56.625Z,76.57
2023-05-03T23:47:05.275Z,76.83
2023-05-03T23:52:19.538Z,77.59
2023-05-03T23:57:35.773Z,78.11
